sensor_id;sensor_type;location;lat;lon;timestamp;pressure;altitude;pressure_sealevel;temperature;humidity
38880;BME280;25887;30.194;-97.880;2023-03-26T00:01:36;97852.44;;;29.11;18.71
38880;BME280;25887;30.194;-97.880;2023-03-26T00:04:05;97845.84;;;29.06;18.40
38880;BME280;25887;30.194;-97.880;2023-03-26T00:06:37;97849.00;;;29.00;18.46
38880;BME280;25887;30.194;-97.880;2023-03-26T00:09:06;97845.03;;;28.94;18.27
38880;BME280;25887;30.194;-97.880;2023-03-26T00:11:33;97841.09;;;28.89;18.49
38880;BME280;25887;30.194;-97.880;2023-03-26T00:14:03;97832.81;;;28.82;18.14
38880;BME280;25887;30.194;-97.880;2023-03-26T00:16:30;97839.44;;;28.76;18.41
38880;BME280;25887;30.194;-97.880;2023-03-26T00:19:03;97847.03;;;28.70;18.41
38880;BME280;25887;30.194;-97.880;2023-03-26T00:21:33;97843.00;;;28.66;18.67
38880;BME280;25887;30.194;-97.880;2023-03-26T00:24:05;97850.59;;;28.59;18.93
38880;BME280;25887;30.194;-97.880;2023-03-26T00:26:36;97848.44;;;28.53;18.95
38880;BME280;25887;30.194;-97.880;2023-03-26T00:29:03;97850.59;;;28.48;18.73
38880;BME280;25887;30.194;-97.880;2023-03-26T00:31:32;97856.28;;;28.43;19.23
38880;BME280;25887;30.194;-97.880;2023-03-26T00:33:58;97851.63;;;28.36;18.86
38880;BME280;25887;30.194;-97.880;2023-03-26T00:36:27;97856.50;;;28.29;18.84
38880;BME280;25887;30.194;-97.880;2023-03-26T00:38:54;97858.09;;;28.20;19.30
38880;BME280;25887;30.194;-97.880;2023-03-26T00:41:23;97847.31;;;28.12;18.96
38880;BME280;25887;30.194;-97.880;2023-03-26T00:43:55;97847.78;;;28.06;19.28
38880;BME280;25887;30.194;-97.880;2023-03-26T00:46:27;97852.00;;;27.97;19.75
38880;BME280;25887;30.194;-97.880;2023-03-26T00:48:54;97859.81;;;27.88;19.74
38880;BME280;25887;30.194;-97.880;2023-03-26T00:51:23;97853.56;;;27.77;19.46
38880;BME280;25887;30.194;-97.880;2023-03-26T00:53:50;97857.69;;;27.70;19.90
38880;BME280;25887;30.194;-97.880;2023-03-26T00:56:17;97854.63;;;27.64;20.12
38880;BME280;25887;30.194;-97.880;2023-03-26T00:58:44;97860.59;;;27.55;20.07
38880;BME280;25887;30.194;-97.880;2023-03-26T01:01:13;97859.50;;;27.46;20.66
38880;BME280;25887;30.194;-97.880;2023-03-26T01:03:42;97864.66;;;27.36;20.49
38880;BME280;25887;30.194;-97.880;2023-03-26T01:06:21;97869.56;;;27.30;20.78
38880;BME280;25887;30.194;-97.880;2023-03-26T01:08:53;97880.81;;;27.20;21.01
38880;BME280;25887;30.194;-97.880;2023-03-26T01:11:29;97874.56;;;27.10;20.98
38880;BME280;25887;30.194;-97.880;2023-03-26T01:13:59;97885.66;;;27.03;20.92
38880;BME280;25887;30.194;-97.880;2023-03-26T01:16:35;97888.88;;;26.95;21.27
38880;BME280;25887;30.194;-97.880;2023-03-26T01:19:13;97882.47;;;26.86;21.25
38880;BME280;25887;30.194;-97.880;2023-03-26T01:21:41;97884.22;;;26.75;21.52
38880;BME280;25887;30.194;-97.880;2023-03-26T01:24:08;97889.22;;;26.66;21.45
38880;BME280;25887;30.194;-97.880;2023-03-26T01:27:09;97887.84;;;26.61;21.77
38880;BME280;25887;30.194;-97.880;2023-03-26T01:33:04;97893.03;;;26.38;22.04
38880;BME280;25887;30.194;-97.880;2023-03-26T01:38:36;97901.88;;;26.25;22.23
38880;BME280;25887;30.194;-97.880;2023-03-26T01:41:21;97912.84;;;26.19;22.51
38880;BME280;25887;30.194;-97.880;2023-03-26T01:46:59;97911.59;;;25.99;22.80
38880;BME280;25887;30.194;-97.880;2023-03-26T01:49:27;97923.63;;;25.90;23.00
38880;BME280;25887;30.194;-97.880;2023-03-26T01:51:55;97930.25;;;25.83;22.90
38880;BME280;25887;30.194;-97.880;2023-03-26T01:54:26;97929.22;;;25.73;23.13
38880;BME280;25887;30.194;-97.880;2023-03-26T01:57:18;97933.91;;;25.68;23.34
38880;BME280;25887;30.194;-97.880;2023-03-26T02:00:06;97938.34;;;25.54;23.42
38880;BME280;25887;30.194;-97.880;2023-03-26T02:05:53;97938.81;;;25.34;23.84
38880;BME280;25887;30.194;-97.880;2023-03-26T02:08:38;97945.44;;;25.27;23.94
38880;BME280;25887;30.194;-97.880;2023-03-26T02:11:12;97924.91;;;25.19;24.05
38880;BME280;25887;30.194;-97.880;2023-03-26T02:13:41;97929.94;;;25.10;23.91
38880;BME280;25887;30.194;-97.880;2023-03-26T02:16:10;97929.56;;;25.01;24.19
38880;BME280;25887;30.194;-97.880;2023-03-26T02:18:39;97945.84;;;24.94;24.45
38880;BME280;25887;30.194;-97.880;2023-03-26T02:21:12;97948.03;;;24.87;24.46
38880;BME280;25887;30.194;-97.880;2023-03-26T02:23:40;97949.38;;;24.80;24.44
38880;BME280;25887;30.194;-97.880;2023-03-26T02:26:13;97953.31;;;24.73;24.62
38880;BME280;25887;30.194;-97.880;2023-03-26T02:28:40;97967.91;;;24.64;24.67
38880;BME280;25887;30.194;-97.880;2023-03-26T02:31:06;97977.09;;;24.57;24.74
38880;BME280;25887;30.194;-97.880;2023-03-26T02:33:36;97980.09;;;24.51;25.02
38880;BME280;25887;30.194;-97.880;2023-03-26T02:36:03;97985.78;;;24.45;25.07
38880;BME280;25887;30.194;-97.880;2023-03-26T02:38:31;97982.69;;;24.38;25.29
38880;BME280;25887;30.194;-97.880;2023-03-26T02:41:01;97983.13;;;24.31;25.13
38880;BME280;25887;30.194;-97.880;2023-03-26T02:43:28;97992.22;;;24.25;25.18
38880;BME280;25887;30.194;-97.880;2023-03-26T02:45:54;97993.53;;;24.18;25.45
38880;BME280;25887;30.194;-97.880;2023-03-26T02:48:21;98001.75;;;24.12;25.74
38880;BME280;25887;30.194;-97.880;2023-03-26T02:50:47;98006.38;;;24.08;25.66
38880;BME280;25887;30.194;-97.880;2023-03-26T02:53:22;98004.00;;;24.04;25.61
38880;BME280;25887;30.194;-97.880;2023-03-26T02:56:38;98002.31;;;24.03;25.78
38880;BME280;25887;30.194;-97.880;2023-03-26T02:59:04;98003.94;;;23.91;25.70
38880;BME280;25887;30.194;-97.880;2023-03-26T03:01:30;98006.81;;;23.86;25.77
38880;BME280;25887;30.194;-97.880;2023-03-26T03:04:01;98009.72;;;23.82;26.36
38880;BME280;25887;30.194;-97.880;2023-03-26T03:06:28;98019.66;;;23.77;26.44
38880;BME280;25887;30.194;-97.880;2023-03-26T03:08:55;98023.56;;;23.70;26.74
38880;BME280;25887;30.194;-97.880;2023-03-26T03:11:22;98032.81;;;23.61;26.42
38880;BME280;25887;30.194;-97.880;2023-03-26T03:13:49;98032.28;;;23.54;26.97
38880;BME280;25887;30.194;-97.880;2023-03-26T03:19:38;98048.50;;;23.31;27.27
38880;BME280;25887;30.194;-97.880;2023-03-26T03:22:04;98045.47;;;23.23;27.20
38880;BME280;25887;30.194;-97.880;2023-03-26T03:24:30;98046.84;;;23.14;27.26
38880;BME280;25887;30.194;-97.880;2023-03-26T03:26:58;98046.41;;;23.06;27.23
38880;BME280;25887;30.194;-97.880;2023-03-26T03:29:24;98057.22;;;23.00;27.62
38880;BME280;25887;30.194;-97.880;2023-03-26T03:31:50;98065.44;;;22.94;27.79
38880;BME280;25887;30.194;-97.880;2023-03-26T03:34:17;98064.91;;;22.87;28.03
38880;BME280;25887;30.194;-97.880;2023-03-26T03:36:43;98057.44;;;22.79;28.02
38880;BME280;25887;30.194;-97.880;2023-03-26T03:39:13;98059.56;;;22.73;27.88
38880;BME280;25887;30.194;-97.880;2023-03-26T03:41:42;98063.59;;;22.63;28.24
38880;BME280;25887;30.194;-97.880;2023-03-26T03:44:08;98072.72;;;22.56;28.40
38880;BME280;25887;30.194;-97.880;2023-03-26T03:46:35;98079.47;;;22.44;28.26
38880;BME280;25887;30.194;-97.880;2023-03-26T03:49:02;98073.25;;;22.29;28.31
38880;BME280;25887;30.194;-97.880;2023-03-26T03:51:29;98077.28;;;22.19;28.29
38880;BME280;25887;30.194;-97.880;2023-03-26T03:54:01;98069.03;;;22.09;28.34
38880;BME280;25887;30.194;-97.880;2023-03-26T03:56:28;98059.19;;;21.97;28.79
38880;BME280;25887;30.194;-97.880;2023-03-26T03:58:54;98059.66;;;21.88;28.89
38880;BME280;25887;30.194;-97.880;2023-03-26T04:01:23;98054.88;;;21.79;28.84
38880;BME280;25887;30.194;-97.880;2023-03-26T04:03:49;98053.66;;;21.68;28.99
38880;BME280;25887;30.194;-97.880;2023-03-26T04:06:15;98058.34;;;21.62;29.26
38880;BME280;25887;30.194;-97.880;2023-03-26T04:08:51;98062.25;;;21.53;29.18
38880;BME280;25887;30.194;-97.880;2023-03-26T04:11:17;98069.78;;;21.42;29.04
38880;BME280;25887;30.194;-97.880;2023-03-26T04:13:43;98058.06;;;21.32;29.42
38880;BME280;25887;30.194;-97.880;2023-03-26T04:16:10;98059.34;;;21.23;29.52
38880;BME280;25887;30.194;-97.880;2023-03-26T04:18:36;98058.78;;;21.17;29.46
38880;BME280;25887;30.194;-97.880;2023-03-26T04:21:03;98066.22;;;21.07;29.57
38880;BME280;25887;30.194;-97.880;2023-03-26T04:23:30;98059.75;;;20.97;29.81
38880;BME280;25887;30.194;-97.880;2023-03-26T04:26:02;98050.56;;;20.88;29.91
38880;BME280;25887;30.194;-97.880;2023-03-26T04:28:35;98042.19;;;20.81;30.01
38880;BME280;25887;30.194;-97.880;2023-03-26T04:31:13;98037.94;;;20.79;30.09
38880;BME280;25887;30.194;-97.880;2023-03-26T04:33:45;98035.53;;;20.74;30.07
38880;BME280;25887;30.194;-97.880;2023-03-26T04:36:14;98028.06;;;20.67;30.33
38880;BME280;25887;30.194;-97.880;2023-03-26T04:38:45;98024.88;;;20.60;30.41
38880;BME280;25887;30.194;-97.880;2023-03-26T04:41:16;98032.31;;;20.50;30.44
38880;BME280;25887;30.194;-97.880;2023-03-26T04:43:43;98020.50;;;20.42;30.51
38880;BME280;25887;30.194;-97.880;2023-03-26T04:46:13;98014.78;;;20.34;30.50
38880;BME280;25887;30.194;-97.880;2023-03-26T04:48:39;98001.34;;;20.22;30.74
38880;BME280;25887;30.194;-97.880;2023-03-26T04:51:05;97994.78;;;20.14;30.65
38880;BME280;25887;30.194;-97.880;2023-03-26T04:53:33;97998.47;;;20.10;30.94
38880;BME280;25887;30.194;-97.880;2023-03-26T04:58:58;97986.22;;;19.91;31.02
38880;BME280;25887;30.194;-97.880;2023-03-26T05:01:25;97985.84;;;19.80;31.24
38880;BME280;25887;30.194;-97.880;2023-03-26T05:03:59;97987.22;;;19.68;31.15
38880;BME280;25887;30.194;-97.880;2023-03-26T05:06:26;97979.72;;;19.61;31.54
38880;BME280;25887;30.194;-97.880;2023-03-26T05:09:03;97978.28;;;19.54;31.57
38880;BME280;25887;30.194;-97.880;2023-03-26T05:11:29;97974.03;;;19.51;31.71
38880;BME280;25887;30.194;-97.880;2023-03-26T05:13:55;97970.72;;;19.47;31.81
38880;BME280;25887;30.194;-97.880;2023-03-26T05:16:22;97968.28;;;19.43;31.90
38880;BME280;25887;30.194;-97.880;2023-03-26T05:18:49;97962.47;;;19.38;31.97
38880;BME280;25887;30.194;-97.880;2023-03-26T05:21:16;97962.72;;;19.32;31.92
38880;BME280;25887;30.194;-97.880;2023-03-26T05:23:42;97950.72;;;19.28;32.06
38880;BME280;25887;30.194;-97.880;2023-03-26T05:26:09;97944.91;;;19.21;32.22
38880;BME280;25887;30.194;-97.880;2023-03-26T05:28:36;97932.19;;;19.13;32.34
38880;BME280;25887;30.194;-97.880;2023-03-26T05:31:02;97927.31;;;19.06;32.23
38880;BME280;25887;30.194;-97.880;2023-03-26T05:33:30;97930.91;;;19.03;32.54
38880;BME280;25887;30.194;-97.880;2023-03-26T05:36:05;97937.09;;;19.01;32.54
38880;BME280;25887;30.194;-97.880;2023-03-26T05:38:34;97941.63;;;18.96;32.71
38880;BME280;25887;30.194;-97.880;2023-03-26T05:41:02;97954.72;;;18.94;32.81
38880;BME280;25887;30.194;-97.880;2023-03-26T05:43:29;97963.44;;;18.93;32.91
38880;BME280;25887;30.194;-97.880;2023-03-26T05:45:56;97958.41;;;18.88;32.95
38880;BME280;25887;30.194;-97.880;2023-03-26T05:48:22;97953.13;;;18.90;32.99
38880;BME280;25887;30.194;-97.880;2023-03-26T05:50:53;97957.56;;;18.88;32.98
38880;BME280;25887;30.194;-97.880;2023-03-26T05:53:21;97968.16;;;18.83;33.26
38880;BME280;25887;30.194;-97.880;2023-03-26T05:55:48;97963.19;;;18.77;33.10
38880;BME280;25887;30.194;-97.880;2023-03-26T05:58:33;97962.53;;;18.72;33.07
38880;BME280;25887;30.194;-97.880;2023-03-26T06:01:10;97971.25;;;18.71;33.11
38880;BME280;25887;30.194;-97.880;2023-03-26T06:03:45;97969.66;;;18.67;33.29
38880;BME280;25887;30.194;-97.880;2023-03-26T06:06:14;97970.66;;;18.63;33.37
38880;BME280;25887;30.194;-97.880;2023-03-26T06:08:46;97983.84;;;18.58;33.65
38880;BME280;25887;30.194;-97.880;2023-03-26T06:11:17;97971.97;;;18.51;33.65
38880;BME280;25887;30.194;-97.880;2023-03-26T06:13:44;97968.88;;;18.42;33.75
38880;BME280;25887;30.194;-97.880;2023-03-26T06:16:11;97980.34;;;18.36;33.73
38880;BME280;25887;30.194;-97.880;2023-03-26T06:18:45;97969.34;;;18.29;33.83
38880;BME280;25887;30.194;-97.880;2023-03-26T06:21:11;97973.09;;;18.22;34.11
38880;BME280;25887;30.194;-97.880;2023-03-26T06:23:37;97974.28;;;18.14;34.11
38880;BME280;25887;30.194;-97.880;2023-03-26T06:26:04;97969.31;;;18.07;33.95
38880;BME280;25887;30.194;-97.880;2023-03-26T06:28:31;97972.19;;;18.00;34.07
38880;BME280;25887;30.194;-97.880;2023-03-26T06:30:58;97974.16;;;17.93;34.02
38880;BME280;25887;30.194;-97.880;2023-03-26T06:33:26;97972.63;;;17.88;34.23
38880;BME280;25887;30.194;-97.880;2023-03-26T06:35:52;97977.16;;;17.83;34.42
38880;BME280;25887;30.194;-97.880;2023-03-26T06:38:18;97967.88;;;17.75;34.37
38880;BME280;25887;30.194;-97.880;2023-03-26T06:40:45;97965.50;;;17.68;34.65
38880;BME280;25887;30.194;-97.880;2023-03-26T06:43:11;97971.63;;;17.65;34.68
38880;BME280;25887;30.194;-97.880;2023-03-26T06:45:38;97964.03;;;17.61;34.76
38880;BME280;25887;30.194;-97.880;2023-03-26T06:48:06;97959.81;;;17.57;34.72
38880;BME280;25887;30.194;-97.880;2023-03-26T06:50:33;97953.91;;;17.53;34.92
38880;BME280;25887;30.194;-97.880;2023-03-26T06:52:59;97947.00;;;17.52;34.90
38880;BME280;25887;30.194;-97.880;2023-03-26T06:55:28;97944.56;;;17.47;35.15
38880;BME280;25887;30.194;-97.880;2023-03-26T06:57:54;97941.19;;;17.45;35.05
38880;BME280;25887;30.194;-97.880;2023-03-26T07:00:23;97947.38;;;17.41;35.11
38880;BME280;25887;30.194;-97.880;2023-03-26T07:02:49;97950.88;;;17.40;35.10
38880;BME280;25887;30.194;-97.880;2023-03-26T07:05:15;97953.56;;;17.37;35.14
38880;BME280;25887;30.194;-97.880;2023-03-26T07:07:42;97941.53;;;17.35;35.42
38880;BME280;25887;30.194;-97.880;2023-03-26T07:10:09;97942.50;;;17.32;35.36
38880;BME280;25887;30.194;-97.880;2023-03-26T07:12:35;97935.72;;;17.28;35.46
38880;BME280;25887;30.194;-97.880;2023-03-26T07:15:02;97932.47;;;17.21;35.57
38880;BME280;25887;30.194;-97.880;2023-03-26T07:17:29;97920.50;;;17.17;35.21
38880;BME280;25887;30.194;-97.880;2023-03-26T07:19:55;97915.47;;;17.13;35.72
38880;BME280;25887;30.194;-97.880;2023-03-26T07:22:24;97907.03;;;17.06;35.70
38880;BME280;25887;30.194;-97.880;2023-03-26T07:24:50;97906.34;;;17.01;35.65
38880;BME280;25887;30.194;-97.880;2023-03-26T07:27:35;97903.78;;;16.99;35.81
38880;BME280;25887;30.194;-97.880;2023-03-26T07:33:15;97898.16;;;16.87;35.90
38880;BME280;25887;30.194;-97.880;2023-03-26T07:35:53;97895.75;;;16.81;35.88
38880;BME280;25887;30.194;-97.880;2023-03-26T07:42:33;97902.00;;;16.75;35.85
38880;BME280;25887;30.194;-97.880;2023-03-26T07:47:47;97879.78;;;16.66;36.11
38880;BME280;25887;30.194;-97.880;2023-03-26T07:50:19;97895.28;;;16.69;36.19
38880;BME280;25887;30.194;-97.880;2023-03-26T07:52:46;97893.53;;;16.70;36.14
38880;BME280;25887;30.194;-97.880;2023-03-26T07:55:16;97899.50;;;16.72;36.35
38880;BME280;25887;30.194;-97.880;2023-03-26T08:06:53;97906.81;;;16.59;36.59
38880;BME280;25887;30.194;-97.880;2023-03-26T08:14:31;97921.03;;;16.46;36.53
38880;BME280;25887;30.194;-97.880;2023-03-26T08:22:25;97923.03;;;16.38;36.83
38880;BME280;25887;30.194;-97.880;2023-03-26T08:25:28;97927.31;;;16.39;36.98
38880;BME280;25887;30.194;-97.880;2023-03-26T08:30:49;97940.50;;;16.31;37.18
38880;BME280;25887;30.194;-97.880;2023-03-26T08:33:20;97939.66;;;16.31;37.20
38880;BME280;25887;30.194;-97.880;2023-03-26T08:35:48;97933.75;;;16.26;37.03
38880;BME280;25887;30.194;-97.880;2023-03-26T08:38:17;97936.44;;;16.23;37.32
38880;BME280;25887;30.194;-97.880;2023-03-26T08:58:21;97942.41;;;15.95;37.53
38880;BME280;25887;30.194;-97.880;2023-03-26T09:01:08;97935.75;;;15.86;37.58
38880;BME280;25887;30.194;-97.880;2023-03-26T09:34:27;97916.06;;;15.48;38.34
38880;BME280;25887;30.194;-97.880;2023-03-26T09:42:49;97923.19;;;15.42;38.44
38880;BME280;25887;30.194;-97.880;2023-03-26T09:45:33;97918.03;;;15.40;38.76
38880;BME280;25887;30.194;-97.880;2023-03-26T09:48:18;97911.09;;;15.42;38.69
38880;BME280;25887;30.194;-97.880;2023-03-26T09:51:28;97907.47;;;15.48;38.58
38880;BME280;25887;30.194;-97.880;2023-03-26T09:57:33;97908.31;;;15.48;38.66
38880;BME280;25887;30.194;-97.880;2023-03-26T10:08:48;97913.31;;;15.54;38.81
38880;BME280;25887;30.194;-97.880;2023-03-26T10:22:20;97893.56;;;15.52;39.02
38880;BME280;25887;30.194;-97.880;2023-03-26T10:25:13;97916.75;;;15.56;39.16
38880;BME280;25887;30.194;-97.880;2023-03-26T10:28:16;97914.06;;;15.59;39.14
38880;BME280;25887;30.194;-97.880;2023-03-26T10:36:50;97898.53;;;15.59;39.36
38880;BME280;25887;30.194;-97.880;2023-03-26T10:39:33;97887.28;;;15.60;39.14
38880;BME280;25887;30.194;-97.880;2023-03-26T10:43:16;97882.09;;;15.60;39.22
38880;BME280;25887;30.194;-97.880;2023-03-26T10:56:05;97886.13;;;15.71;39.02
38880;BME280;25887;30.194;-97.880;2023-03-26T10:58:34;97897.22;;;15.76;39.32
38880;BME280;25887;30.194;-97.880;2023-03-26T11:01:23;97889.34;;;15.79;39.21
38880;BME280;25887;30.194;-97.880;2023-03-26T11:04:26;97901.19;;;15.89;38.96
38880;BME280;25887;30.194;-97.880;2023-03-26T11:09:52;97906.94;;;15.99;39.05
38880;BME280;25887;30.194;-97.880;2023-03-26T11:18:04;97914.31;;;16.12;39.05
38880;BME280;25887;30.194;-97.880;2023-03-26T11:31:48;97931.28;;;16.23;39.10
38880;BME280;25887;30.194;-97.880;2023-03-26T11:34:24;97937.47;;;16.19;39.01
38880;BME280;25887;30.194;-97.880;2023-03-26T11:36:55;97941.88;;;16.15;39.08
38880;BME280;25887;30.194;-97.880;2023-03-26T11:39:35;97945.44;;;16.11;38.98
38880;BME280;25887;30.194;-97.880;2023-03-26T11:42:13;97939.44;;;16.09;39.05
38880;BME280;25887;30.194;-97.880;2023-03-26T11:45:20;97945.47;;;16.09;38.93
38880;BME280;25887;30.194;-97.880;2023-03-26T11:48:02;97952.56;;;16.03;39.10
38880;BME280;25887;30.194;-97.880;2023-03-26T11:50:31;97954.31;;;16.02;39.18
38880;BME280;25887;30.194;-97.880;2023-03-26T11:53:11;97961.22;;;16.03;39.16
38880;BME280;25887;30.194;-97.880;2023-03-26T11:55:47;97966.47;;;16.00;38.70
38880;BME280;25887;30.194;-97.880;2023-03-26T11:58:29;97968.25;;;15.98;39.35
38880;BME280;25887;30.194;-97.880;2023-03-26T12:01:03;97973.50;;;15.95;39.23
38880;BME280;25887;30.194;-97.880;2023-03-26T12:03:29;97971.91;;;15.91;39.21
38880;BME280;25887;30.194;-97.880;2023-03-26T12:09:19;97960.06;;;15.82;39.21
38880;BME280;25887;30.194;-97.880;2023-03-26T12:11:46;97967.91;;;15.79;39.28
38880;BME280;25887;30.194;-97.880;2023-03-26T12:21:25;97966.53;;;15.68;39.22
38880;BME280;25887;30.194;-97.880;2023-03-26T12:23:56;97976.97;;;15.65;39.26
38880;BME280;25887;30.194;-97.880;2023-03-26T12:26:42;97975.19;;;15.67;39.33
38880;BME280;25887;30.194;-97.880;2023-03-26T12:29:16;97979.63;;;15.60;39.52
38880;BME280;25887;30.194;-97.880;2023-03-26T12:31:57;97979.63;;;15.62;39.47
38880;BME280;25887;30.194;-97.880;2023-03-26T12:34:32;97979.63;;;15.60;39.66
38880;BME280;25887;30.194;-97.880;2023-03-26T12:37:01;97976.25;;;15.58;39.47
38880;BME280;25887;30.194;-97.880;2023-03-26T12:42:00;97987.50;;;15.57;39.62
38880;BME280;25887;30.194;-97.880;2023-03-26T12:44:45;97981.38;;;15.59;39.81
38880;BME280;25887;30.194;-97.880;2023-03-26T12:47:38;97984.81;;;15.62;39.83
38880;BME280;25887;30.194;-97.880;2023-03-26T12:53:20;97978.00;;;15.57;39.95
38880;BME280;25887;30.194;-97.880;2023-03-26T12:59:12;97993.38;;;15.64;39.87
38880;BME280;25887;30.194;-97.880;2023-03-26T13:02:05;97987.34;;;15.63;39.87
38880;BME280;25887;30.194;-97.880;2023-03-26T13:10:26;98005.06;;;15.78;40.26
38880;BME280;25887;30.194;-97.880;2023-03-26T13:16:31;98004.84;;;15.86;40.17
38880;BME280;25887;30.194;-97.880;2023-03-26T13:19:27;98015.16;;;15.89;40.07
38880;BME280;25887;30.194;-97.880;2023-03-26T13:27:40;98013.22;;;15.97;40.64
38880;BME280;25887;30.194;-97.880;2023-03-26T13:30:32;98021.66;;;16.04;40.88
38880;BME280;25887;30.194;-97.880;2023-03-26T13:36:23;98029.84;;;16.20;41.02
38880;BME280;25887;30.194;-97.880;2023-03-26T13:47:58;98053.13;;;16.52;41.39
38880;BME280;25887;30.194;-97.880;2023-03-26T13:50:36;98046.75;;;16.62;41.42
38880;BME280;25887;30.194;-97.880;2023-03-26T13:53:25;98053.38;;;16.74;41.53
38880;BME280;25887;30.194;-97.880;2023-03-26T13:56:22;98052.09;;;16.87;41.29
38880;BME280;25887;30.194;-97.880;2023-03-26T13:59:29;98048.34;;;16.97;41.39
38880;BME280;25887;30.194;-97.880;2023-03-26T14:02:02;98042.00;;;17.06;41.33
38880;BME280;25887;30.194;-97.880;2023-03-26T14:04:37;98037.34;;;17.16;41.54
38880;BME280;25887;30.194;-97.880;2023-03-26T14:07:14;98030.13;;;17.25;41.56
38880;BME280;25887;30.194;-97.880;2023-03-26T14:10:00;98036.72;;;17.36;41.40
38880;BME280;25887;30.194;-97.880;2023-03-26T14:15:26;98033.31;;;17.60;41.31
38880;BME280;25887;30.194;-97.880;2023-03-26T14:18:23;98028.53;;;17.74;41.13
38880;BME280;25887;30.194;-97.880;2023-03-26T14:34:25;98029.16;;;18.53;41.11
38880;BME280;25887;30.194;-97.880;2023-03-26T14:52:17;98031.03;;;19.38;40.83
38880;BME280;25887;30.194;-97.880;2023-03-26T14:54:49;98020.09;;;19.51;41.02
38880;BME280;25887;30.194;-97.880;2023-03-26T15:18:40;98063.63;;;20.30;41.76
38880;BME280;25887;30.194;-97.880;2023-03-26T15:27:01;98055.63;;;20.53;42.16
38880;BME280;25887;30.194;-97.880;2023-03-26T15:43:11;98052.63;;;21.36;42.01
38880;BME280;25887;30.194;-97.880;2023-03-26T15:50:48;98044.59;;;21.58;42.62
38880;BME280;25887;30.194;-97.880;2023-03-26T15:56:06;98043.06;;;21.72;42.88
38880;BME280;25887;30.194;-97.880;2023-03-26T16:05:05;98045.34;;;21.95;43.08
38880;BME280;25887;30.194;-97.880;2023-03-26T16:15:55;98025.63;;;22.22;43.47
38880;BME280;25887;30.194;-97.880;2023-03-26T16:18:33;98024.06;;;22.36;43.55
38880;BME280;25887;30.194;-97.880;2023-03-26T16:27:29;98018.16;;;22.79;44.32
38880;BME280;25887;30.194;-97.880;2023-03-26T16:30:15;98011.34;;;22.93;44.65
38880;BME280;25887;30.194;-97.880;2023-03-26T16:32:56;98006.00;;;23.10;44.41
38880;BME280;25887;30.194;-97.880;2023-03-26T16:35:39;98016.44;;;23.26;44.64
38880;BME280;25887;30.194;-97.880;2023-03-26T16:38:10;98008.53;;;23.42;44.59
38880;BME280;25887;30.194;-97.880;2023-03-26T16:44:19;98008.31;;;23.76;45.01
38880;BME280;25887;30.194;-97.880;2023-03-26T16:50:02;98003.84;;;24.07;45.26
38880;BME280;25887;30.194;-97.880;2023-03-26T16:52:53;98001.97;;;24.23;45.22
38880;BME280;25887;30.194;-97.880;2023-03-26T16:55:36;98005.38;;;24.39;45.47
38880;BME280;25887;30.194;-97.880;2023-03-26T16:58:14;97999.06;;;24.56;45.84
38880;BME280;25887;30.194;-97.880;2023-03-26T17:00:53;97995.66;;;24.68;46.13
38880;BME280;25887;30.194;-97.880;2023-03-26T17:03:50;98001.81;;;24.82;46.48
38880;BME280;25887;30.194;-97.880;2023-03-26T17:12:18;97993.09;;;25.22;46.71
38880;BME280;25887;30.194;-97.880;2023-03-26T17:18:11;97981.97;;;25.44;46.44
38880;BME280;25887;30.194;-97.880;2023-03-26T17:26:18;97980.06;;;25.86;46.08
38880;BME280;25887;30.194;-97.880;2023-03-26T17:28:52;97973.31;;;25.95;46.09
38880;BME280;25887;30.194;-97.880;2023-03-26T17:32:50;97973.53;;;26.04;46.33
38880;BME280;25887;30.194;-97.880;2023-03-26T17:42:33;97966.34;;;26.69;45.85
38880;BME280;25887;30.194;-97.880;2023-03-26T17:45:20;97967.78;;;26.85;45.98
38880;BME280;25887;30.194;-97.880;2023-03-26T17:50:54;97964.88;;;27.01;45.56
38880;BME280;25887;30.194;-97.880;2023-03-26T17:53:31;97968.78;;;27.08;45.80
38880;BME280;25887;30.194;-97.880;2023-03-26T17:56:03;97961.06;;;27.05;45.60
38880;BME280;25887;30.194;-97.880;2023-03-26T17:58:36;97961.19;;;27.04;45.65
38880;BME280;25887;30.194;-97.880;2023-03-26T18:01:20;97959.16;;;27.07;45.77
38880;BME280;25887;30.194;-97.880;2023-03-26T18:03:56;97960.88;;;27.08;45.96
38880;BME280;25887;30.194;-97.880;2023-03-26T18:09:45;97961.03;;;27.18;45.66
38880;BME280;25887;30.194;-97.880;2023-03-26T18:17:49;97954.06;;;27.17;45.57
38880;BME280;25887;30.194;-97.880;2023-03-26T18:20:26;97947.31;;;27.13;45.68
38880;BME280;25887;30.194;-97.880;2023-03-26T18:22:54;97936.66;;;27.14;45.47
38880;BME280;25887;30.194;-97.880;2023-03-26T18:25:30;97935.81;;;27.14;45.62
38880;BME280;25887;30.194;-97.880;2023-03-26T18:27:59;97936.44;;;27.17;46.05
38880;BME280;25887;30.194;-97.880;2023-03-26T18:30:28;97928.94;;;27.24;45.77
38880;BME280;25887;30.194;-97.880;2023-03-26T18:35:57;97925.72;;;27.43;45.85
38880;BME280;25887;30.194;-97.880;2023-03-26T18:38:23;97922.75;;;27.59;45.58
38880;BME280;25887;30.194;-97.880;2023-03-26T18:40:52;97920.78;;;27.73;45.47
38880;BME280;25887;30.194;-97.880;2023-03-26T18:43:20;97910.00;;;27.88;45.83
38880;BME280;25887;30.194;-97.880;2023-03-26T18:45:50;97907.22;;;28.00;45.86
38880;BME280;25887;30.194;-97.880;2023-03-26T18:48:24;97903.75;;;28.11;45.42
38880;BME280;25887;30.194;-97.880;2023-03-26T18:50:59;97899.53;;;28.20;45.76
38880;BME280;25887;30.194;-97.880;2023-03-26T18:53:27;97900.59;;;28.28;45.53
38880;BME280;25887;30.194;-97.880;2023-03-26T18:55:57;97890.03;;;28.40;45.39
38880;BME280;25887;30.194;-97.880;2023-03-26T18:58:28;97882.94;;;28.51;45.25
38880;BME280;25887;30.194;-97.880;2023-03-26T19:01:08;97877.25;;;28.56;45.03
38880;BME280;25887;30.194;-97.880;2023-03-26T19:03:37;97876.75;;;28.62;45.01
38880;BME280;25887;30.194;-97.880;2023-03-26T19:06:08;97867.84;;;28.63;45.38
38880;BME280;25887;30.194;-97.880;2023-03-26T19:08:42;97865.69;;;28.68;45.34